sensor_id;sensor_type;location;lat;lon;timestamp;pressure;altitude;pressure_sealevel;temperature;humidity
72612;BME280;60655;52.182;4.474;2023-06-14T00:01:21;101458.41;;;20.06;65.60
72612;BME280;60655;52.182;4.474;2023-06-14T00:03:22;101458.16;;;20.12;65.49
72612;BME280;60655;52.182;4.474;2023-06-14T00:05:25;101456.22;;;20.03;65.72
72612;BME280;60655;52.182;4.474;2023-06-14T00:07:34;101450.31;;;20.06;65.64
72612;BME280;60655;52.182;4.474;2023-06-14T00:09:36;101448.63;;;19.95;66.04
72612;BME280;60655;52.182;4.474;2023-06-14T00:11:37;101461.03;;;19.96;66.15
72612;BME280;60655;52.182;4.474;2023-06-14T00:13:38;101459.94;;;19.86;66.38
72612;BME280;60655;52.182;4.474;2023-06-14T00:15:39;101461.56;;;19.87;66.52
72612;BME280;60655;52.182;4.474;2023-06-14T00:17:40;101457.50;;;19.85;66.32
72612;BME280;60655;52.182;4.474;2023-06-14T00:19:41;101456.94;;;19.83;66.28
72612;BME280;60655;52.182;4.474;2023-06-14T00:21:42;101465.34;;;19.86;66.43
72612;BME280;60655;52.182;4.474;2023-06-14T00:23:43;101457.19;;;19.76;66.47
72612;BME280;60655;52.182;4.474;2023-06-14T00:25:45;101453.13;;;19.74;66.55
72612;BME280;60655;52.182;4.474;2023-06-14T00:27:46;101460.16;;;19.75;66.40
72612;BME280;60655;52.182;4.474;2023-06-14T00:29:47;101444.19;;;19.68;66.56
72612;BME280;60655;52.182;4.474;2023-06-14T00:31:48;101461.78;;;19.81;66.41
72612;BME280;60655;52.182;4.474;2023-06-14T00:33:49;101468.00;;;19.81;66.54
72612;BME280;60655;52.182;4.474;2023-06-14T00:35:50;101469.63;;;19.82;66.67
72612;BME280;60655;52.182;4.474;2023-06-14T00:37:50;101458.56;;;19.84;66.34
72612;BME280;60655;52.182;4.474;2023-06-14T00:39:51;101461.25;;;19.79;66.51
72612;BME280;60655;52.182;4.474;2023-06-14T00:41:52;101458.28;;;19.80;66.26
72612;BME280;60655;52.182;4.474;2023-06-14T00:43:53;101451.75;;;19.71;65.89
72612;BME280;60655;52.182;4.474;2023-06-14T00:45:58;101455.28;;;19.72;65.28
72612;BME280;60655;52.182;4.474;2023-06-14T00:48:00;101462.06;;;19.79;64.89
72612;BME280;60655;52.182;4.474;2023-06-14T00:50:01;101462.56;;;19.76;64.35
72612;BME280;60655;52.182;4.474;2023-06-14T00:52:02;101459.59;;;19.73;63.76
72612;BME280;60655;52.182;4.474;2023-06-14T00:54:04;101470.59;;;19.61;62.87
72612;BME280;60655;52.182;4.474;2023-06-14T00:56:05;101463.84;;;19.64;62.71
72612;BME280;60655;52.182;4.474;2023-06-14T00:58:07;101464.97;;;19.73;62.44
72612;BME280;60655;52.182;4.474;2023-06-14T01:00:09;101469.00;;;19.70;62.21
72612;BME280;60655;52.182;4.474;2023-06-14T01:02:10;101458.47;;;19.69;61.66
72612;BME280;60655;52.182;4.474;2023-06-14T01:04:12;101459.00;;;19.66;61.21
72612;BME280;60655;52.182;4.474;2023-06-14T01:06:48;101465.16;;;19.56;60.99
72612;BME280;60655;52.182;4.474;2023-06-14T01:09:15;101466.81;;;19.62;60.48
72612;BME280;60655;52.182;4.474;2023-06-14T01:11:26;101459.25;;;19.64;59.74
72612;BME280;60655;52.182;4.474;2023-06-14T01:13:33;101453.88;;;19.59;59.17
72612;BME280;60655;52.182;4.474;2023-06-14T01:15:34;101459.53;;;19.58;59.22
72612;BME280;60655;52.182;4.474;2023-06-14T01:17:36;101456.81;;;19.58;59.40
72612;BME280;60655;52.182;4.474;2023-06-14T01:19:45;101451.44;;;19.58;58.26
72612;BME280;60655;52.182;4.474;2023-06-14T01:21:46;101464.38;;;19.61;57.98
72612;BME280;60655;52.182;4.474;2023-06-14T01:23:52;101458.44;;;19.59;57.44
72612;BME280;60655;52.182;4.474;2023-06-14T01:25:56;101469.78;;;19.61;57.29
72612;BME280;60655;52.182;4.474;2023-06-14T01:28:01;101470.75;;;19.49;57.27
72612;BME280;60655;52.182;4.474;2023-06-14T01:30:04;101471.88;;;19.53;56.98
72612;BME280;60655;52.182;4.474;2023-06-14T01:32:06;101472.34;;;19.45;57.25
72612;BME280;60655;52.182;4.474;2023-06-14T01:34:07;101473.44;;;19.49;56.83
72612;BME280;60655;52.182;4.474;2023-06-14T01:36:09;101436.09;;;19.26;56.39
72612;BME280;60655;52.182;4.474;2023-06-14T01:38:12;101458.00;;;19.40;56.55
72612;BME280;60655;52.182;4.474;2023-06-14T01:40:15;101453.94;;;19.37;57.04
72612;BME280;60655;52.182;4.474;2023-06-14T01:42:16;101471.69;;;19.28;56.57
72612;BME280;60655;52.182;4.474;2023-06-14T01:44:19;101473.34;;;19.34;56.33
72612;BME280;60655;52.182;4.474;2023-06-14T01:46:20;101465.19;;;19.24;56.05
72612;BME280;60655;52.182;4.474;2023-06-14T01:48:22;101465.78;;;19.31;56.42
72612;BME280;60655;52.182;4.474;2023-06-14T01:50:28;101450.88;;;19.18;56.50
72612;BME280;60655;52.182;4.474;2023-06-14T01:52:30;101461.47;;;19.30;56.25
72612;BME280;60655;52.182;4.474;2023-06-14T01:54:31;101467.91;;;19.29;56.16
72612;BME280;60655;52.182;4.474;2023-06-14T01:56:32;101470.84;;;19.22;55.86
72612;BME280;60655;52.182;4.474;2023-06-14T01:58:33;101467.84;;;19.19;56.08
72612;BME280;60655;52.182;4.474;2023-06-14T02:00:34;101462.44;;;19.19;55.83
72612;BME280;60655;52.182;4.474;2023-06-14T02:02:35;101464.59;;;19.17;55.96
72612;BME280;60655;52.182;4.474;2023-06-14T02:04:36;101455.94;;;19.15;55.74
72612;BME280;60655;52.182;4.474;2023-06-14T02:06:37;101458.59;;;19.10;56.08
72612;BME280;60655;52.182;4.474;2023-06-14T02:08:38;101449.16;;;19.07;56.05
72612;BME280;60655;52.182;4.474;2023-06-14T02:10:39;101458.84;;;19.08;56.09
72612;BME280;60655;52.182;4.474;2023-06-14T02:12:40;101450.47;;;19.00;56.05
72612;BME280;60655;52.182;4.474;2023-06-14T02:14:41;101464.81;;;19.10;55.97
72612;BME280;60655;52.182;4.474;2023-06-14T02:16:43;101449.56;;;18.89;56.22
72612;BME280;60655;52.182;4.474;2023-06-14T02:18:49;101461.28;;;19.05;55.92
72612;BME280;60655;52.182;4.474;2023-06-14T02:20:51;101451.22;;;18.95;55.76
72612;BME280;60655;52.182;4.474;2023-06-14T02:22:52;101459.59;;;18.99;55.76
72612;BME280;60655;52.182;4.474;2023-06-14T02:24:53;101455.25;;;18.93;55.72
72612;BME280;60655;52.182;4.474;2023-06-14T02:26:54;101458.66;;;18.83;55.90
72612;BME280;60655;52.182;4.474;2023-06-14T02:28:55;101454.31;;;18.82;55.71
72612;BME280;60655;52.182;4.474;2023-06-14T02:30:56;101456.81;;;18.88;55.63
72612;BME280;60655;52.182;4.474;2023-06-14T02:32:57;101451.06;;;18.75;55.69
72612;BME280;60655;52.182;4.474;2023-06-14T02:34:59;101456.47;;;18.80;55.31
72612;BME280;60655;52.182;4.474;2023-06-14T02:37:01;101457.53;;;18.79;55.74
72612;BME280;60655;52.182;4.474;2023-06-14T02:39:03;101459.13;;;18.75;55.79
72612;BME280;60655;52.182;4.474;2023-06-14T02:41:04;101463.94;;;18.73;55.99
72612;BME280;60655;52.182;4.474;2023-06-14T02:43:06;101458.53;;;18.68;56.11
72612;BME280;60655;52.182;4.474;2023-06-14T02:45:08;101457.69;;;18.67;55.39
72612;BME280;60655;52.182;4.474;2023-06-14T02:47:09;101461.22;;;18.68;55.58
72612;BME280;60655;52.182;4.474;2023-06-14T02:49:11;101466.34;;;18.69;55.98
72612;BME280;60655;52.182;4.474;2023-06-14T02:51:12;101461.97;;;18.63;55.82
72612;BME280;60655;52.182;4.474;2023-06-14T02:53:13;101463.03;;;18.62;55.82
72612;BME280;60655;52.182;4.474;2023-06-14T02:55:14;101461.16;;;18.63;55.91
72612;BME280;60655;52.182;4.474;2023-06-14T02:57:15;101469.22;;;18.63;55.65
72612;BME280;60655;52.182;4.474;2023-06-14T02:59:16;101466.69;;;18.56;55.74
72612;BME280;60655;52.182;4.474;2023-06-14T03:01:17;101471.66;;;18.64;55.49
72612;BME280;60655;52.182;4.474;2023-06-14T03:03:18;101471.47;;;18.49;55.82
72612;BME280;60655;52.182;4.474;2023-06-14T03:05:20;101461.72;;;18.43;56.08
72612;BME280;60655;52.182;4.474;2023-06-14T03:07:25;101471.22;;;18.50;55.96
72612;BME280;60655;52.182;4.474;2023-06-14T03:09:36;101470.63;;;18.43;56.17
72612;BME280;60655;52.182;4.474;2023-06-14T03:11:38;101481.13;;;18.45;56.01
72612;BME280;60655;52.182;4.474;2023-06-14T03:13:39;101474.56;;;18.36;56.93
72612;BME280;60655;52.182;4.474;2023-06-14T03:15:42;101485.97;;;18.48;56.64
72612;BME280;60655;52.182;4.474;2023-06-14T03:17:43;101483.69;;;18.35;56.79
72612;BME280;60655;52.182;4.474;2023-06-14T03:19:46;101493.63;;;18.34;57.60
72612;BME280;60655;52.182;4.474;2023-06-14T03:21:47;101491.75;;;18.35;57.75
72612;BME280;60655;52.182;4.474;2023-06-14T03:23:48;101492.50;;;18.30;58.22
72612;BME280;60655;52.182;4.474;2023-06-14T03:25:49;101493.81;;;18.28;58.25
72612;BME280;60655;52.182;4.474;2023-06-14T03:27:51;101481.34;;;18.16;58.53
72612;BME280;60655;52.182;4.474;2023-06-14T03:29:52;101493.31;;;18.31;58.60
72612;BME280;60655;52.182;4.474;2023-06-14T03:31:58;101503.53;;;18.29;58.55
72612;BME280;60655;52.182;4.474;2023-06-14T03:33:59;101505.03;;;18.19;58.85
72612;BME280;60655;52.182;4.474;2023-06-14T03:36:01;101500.72;;;18.18;59.11
72612;BME280;60655;52.182;4.474;2023-06-14T03:38:03;101507.41;;;18.16;58.89
72612;BME280;60655;52.182;4.474;2023-06-14T03:40:05;101512.84;;;18.21;58.75
72612;BME280;60655;52.182;4.474;2023-06-14T03:42:07;101507.41;;;18.16;59.27
72612;BME280;60655;52.182;4.474;2023-06-14T03:44:08;101498.03;;;18.18;58.80
72612;BME280;60655;52.182;4.474;2023-06-14T03:46:09;101503.09;;;18.15;59.31
72612;BME280;60655;52.182;4.474;2023-06-14T03:48:10;101513.53;;;18.11;59.79
72612;BME280;60655;52.182;4.474;2023-06-14T03:50:11;101502.22;;;18.09;59.74
72612;BME280;60655;52.182;4.474;2023-06-14T03:52:13;101503.03;;;18.10;59.54
72612;BME280;60655;52.182;4.474;2023-06-14T03:54:18;101522.75;;;18.15;59.60
72612;BME280;60655;52.182;4.474;2023-06-14T03:56:19;101510.09;;;18.16;59.81
72612;BME280;60655;52.182;4.474;2023-06-14T03:58:20;101496.19;;;18.02;59.79
72612;BME280;60655;52.182;4.474;2023-06-14T04:00:21;101512.47;;;18.12;59.45
72612;BME280;60655;52.182;4.474;2023-06-14T04:02:22;101515.16;;;18.12;58.79
72612;BME280;60655;52.182;4.474;2023-06-14T04:04:23;101519.09;;;18.05;59.62
72612;BME280;60655;52.182;4.474;2023-06-14T04:06:29;101518.22;;;17.99;59.28
72612;BME280;60655;52.182;4.474;2023-06-14T04:08:33;101522.03;;;18.03;59.15
72612;BME280;60655;52.182;4.474;2023-06-14T04:10:35;101521.47;;;18.01;59.17
72612;BME280;60655;52.182;4.474;2023-06-14T04:12:36;101520.31;;;17.97;59.42
72612;BME280;60655;52.182;4.474;2023-06-14T04:14:37;101518.94;;;17.95;59.26
72612;BME280;60655;52.182;4.474;2023-06-14T04:16:39;101535.06;;;17.95;59.55
72612;BME280;60655;52.182;4.474;2023-06-14T04:18:40;101524.81;;;17.92;60.25
72612;BME280;60655;52.182;4.474;2023-06-14T04:20:41;101518.44;;;17.98;59.80
72612;BME280;60655;52.182;4.474;2023-06-14T04:22:42;101532.47;;;18.00;59.63
72612;BME280;60655;52.182;4.474;2023-06-14T04:24:43;101528.72;;;18.01;59.82
72612;BME280;60655;52.182;4.474;2023-06-14T04:26:45;101528.28;;;18.09;59.59
72612;BME280;60655;52.182;4.474;2023-06-14T04:28:49;101514.88;;;17.92;59.68
72612;BME280;60655;52.182;4.474;2023-06-14T04:30:50;101535.31;;;18.10;59.45
72612;BME280;60655;52.182;4.474;2023-06-14T04:32:51;101528.13;;;18.15;59.74
72612;BME280;60655;52.182;4.474;2023-06-14T04:34:54;101532.94;;;18.13;59.38
72612;BME280;60655;52.182;4.474;2023-06-14T04:36:56;101526.25;;;18.16;59.66
72612;BME280;60655;52.182;4.474;2023-06-14T04:38:59;101534.34;;;18.21;59.54
72612;BME280;60655;52.182;4.474;2023-06-14T04:41:00;101471.06;;;17.92;59.78
72612;BME280;60655;52.182;4.474;2023-06-14T04:43:02;101538.00;;;18.32;59.56
72612;BME280;60655;52.182;4.474;2023-06-14T04:45:07;101520.66;;;18.22;59.51
72612;BME280;60655;52.182;4.474;2023-06-14T04:47:10;101533.69;;;18.31;59.33
72612;BME280;60655;52.182;4.474;2023-06-14T04:49:14;101520.06;;;18.15;59.25
72612;BME280;60655;52.182;4.474;2023-06-14T04:51:18;101538.63;;;18.39;58.94
72612;BME280;60655;52.182;4.474;2023-06-14T04:53:21;101540.81;;;18.42;59.17
72612;BME280;60655;52.182;4.474;2023-06-14T04:55:23;101541.94;;;18.46;58.65
72612;BME280;60655;52.182;4.474;2023-06-14T04:57:25;101534.72;;;18.51;58.24
72612;BME280;60655;52.182;4.474;2023-06-14T04:59:26;101532.28;;;18.50;58.35
72612;BME280;60655;52.182;4.474;2023-06-14T05:01:27;101541.78;;;18.58;58.51
72612;BME280;60655;52.182;4.474;2023-06-14T05:03:28;101538.72;;;18.49;59.09
72612;BME280;60655;52.182;4.474;2023-06-14T05:05:31;101528.78;;;18.49;58.40
72612;BME280;60655;52.182;4.474;2023-06-14T05:07:32;101534.78;;;18.56;58.04
72612;BME280;60655;52.182;4.474;2023-06-14T05:09:35;101540.09;;;18.51;59.04
72612;BME280;60655;52.182;4.474;2023-06-14T05:11:36;101540.97;;;18.57;57.93
72612;BME280;60655;52.182;4.474;2023-06-14T05:13:37;101538.44;;;18.67;57.88
72612;BME280;60655;52.182;4.474;2023-06-14T05:15:38;101547.34;;;18.68;57.80
72612;BME280;60655;52.182;4.474;2023-06-14T05:17:39;101533.97;;;18.56;58.31
72612;BME280;60655;52.182;4.474;2023-06-14T05:19:40;101547.41;;;18.73;57.94
72612;BME280;60655;52.182;4.474;2023-06-14T05:21:42;101544.47;;;18.79;57.90
72612;BME280;60655;52.182;4.474;2023-06-14T05:23:43;101531.03;;;18.79;57.86
72612;BME280;60655;52.182;4.474;2023-06-14T05:25:45;101542.81;;;18.73;57.72
72612;BME280;60655;52.182;4.474;2023-06-14T05:27:47;101547.22;;;18.84;57.20
72612;BME280;60655;52.182;4.474;2023-06-14T05:29:48;101554.81;;;18.87;56.77
72612;BME280;60655;52.182;4.474;2023-06-14T05:31:49;101548.16;;;18.95;56.51
72612;BME280;60655;52.182;4.474;2023-06-14T05:33:50;101556.53;;;18.99;56.19
72612;BME280;60655;52.182;4.474;2023-06-14T05:35:51;101548.72;;;18.97;54.58
72612;BME280;60655;52.182;4.474;2023-06-14T05:37:53;101559.31;;;19.09;54.78
72612;BME280;60655;52.182;4.474;2023-06-14T05:39:54;101558.25;;;19.10;54.70
72612;BME280;60655;52.182;4.474;2023-06-14T05:41:55;101554.41;;;19.01;54.65
72612;BME280;60655;52.182;4.474;2023-06-14T05:43:56;101547.72;;;19.08;53.84
72612;BME280;60655;52.182;4.474;2023-06-14T05:45:57;101557.78;;;19.18;53.67
72612;BME280;60655;52.182;4.474;2023-06-14T05:47:58;101554.94;;;19.30;53.90
72612;BME280;60655;52.182;4.474;2023-06-14T05:49:59;101546.31;;;19.28;52.16
72612;BME280;60655;52.182;4.474;2023-06-14T05:52:00;101562.84;;;19.41;52.48
72612;BME280;60655;52.182;4.474;2023-06-14T05:54:01;101556.94;;;19.44;51.72
72612;BME280;60655;52.182;4.474;2023-06-14T05:56:02;101572.59;;;19.47;51.67
72612;BME280;60655;52.182;4.474;2023-06-14T05:58:03;101570.09;;;19.41;51.28
72612;BME280;60655;52.182;4.474;2023-06-14T06:00:06;101569.31;;;19.40;51.37
72612;BME280;60655;52.182;4.474;2023-06-14T06:02:15;101562.59;;;19.43;51.14
72612;BME280;60655;52.182;4.474;2023-06-14T06:04:16;101571.34;;;19.55;51.31
72612;BME280;60655;52.182;4.474;2023-06-14T06:06:17;101566.56;;;19.67;51.19
72612;BME280;60655;52.182;4.474;2023-06-14T06:08:18;101568.56;;;19.82;50.52
72612;BME280;60655;52.182;4.474;2023-06-14T06:10:19;101567.84;;;19.92;50.58
72612;BME280;60655;52.182;4.474;2023-06-14T06:12:22;101570.25;;;19.93;50.08
72612;BME280;60655;52.182;4.474;2023-06-14T06:14:23;101581.69;;;20.10;49.69
72612;BME280;60655;52.182;4.474;2023-06-14T06:16:30;101584.13;;;20.12;49.42
72612;BME280;60655;52.182;4.474;2023-06-14T06:18:31;101578.50;;;20.18;49.21
72612;BME280;60655;52.182;4.474;2023-06-14T06:20:32;101582.56;;;20.21;48.61
72612;BME280;60655;52.182;4.474;2023-06-14T06:22:34;101584.47;;;20.20;49.52
72612;BME280;60655;52.182;4.474;2023-06-14T06:24:35;101576.81;;;20.07;48.78
72612;BME280;60655;52.182;4.474;2023-06-14T06:26:36;101581.63;;;20.00;48.65
72612;BME280;60655;52.182;4.474;2023-06-14T06:28:37;101587.53;;;19.97;48.69
72612;BME280;60655;52.182;4.474;2023-06-14T06:30:38;101588.09;;;19.99;48.75
72612;BME280;60655;52.182;4.474;2023-06-14T06:32:39;101588.59;;;19.96;48.91
72612;BME280;60655;52.182;4.474;2023-06-14T06:34:40;101591.84;;;19.98;48.40
72612;BME280;60655;52.182;4.474;2023-06-14T06:36:44;101593.56;;;20.09;48.28
72612;BME280;60655;52.182;4.474;2023-06-14T06:38:45;101593.88;;;20.18;49.02
72612;BME280;60655;52.182;4.474;2023-06-14T06:40:46;101602.00;;;20.28;48.86
72612;BME280;60655;52.182;4.474;2023-06-14T06:42:47;101598.75;;;20.26;48.43
72612;BME280;60655;52.182;4.474;2023-06-14T06:44:48;101596.59;;;20.23;47.99
72612;BME280;60655;52.182;4.474;2023-06-14T06:46:49;101607.28;;;20.45;48.48
72612;BME280;60655;52.182;4.474;2023-06-14T06:48:50;101600.53;;;20.52;48.32
72612;BME280;60655;52.182;4.474;2023-06-14T06:50:51;101597.38;;;20.71;48.20
72612;BME280;60655;52.182;4.474;2023-06-14T06:52:52;101598.75;;;20.83;48.21
72612;BME280;60655;52.182;4.474;2023-06-14T06:54:54;101588.50;;;20.85;46.95
72612;BME280;60655;52.182;4.474;2023-06-14T06:56:56;101601.25;;;20.95;46.53
72612;BME280;60655;52.182;4.474;2023-06-14T06:58:58;101614.78;;;21.05;46.79
72612;BME280;60655;52.182;4.474;2023-06-14T07:00:58;101607.69;;;20.84;47.54
72612;BME280;60655;52.182;4.474;2023-06-14T07:02:59;101605.25;;;20.77;47.71
72612;BME280;60655;52.182;4.474;2023-06-14T07:05:00;101620.97;;;21.01;47.76
72612;BME280;60655;52.182;4.474;2023-06-14T07:07:01;101622.34;;;21.13;46.87
72612;BME280;60655;52.182;4.474;2023-06-14T07:09:03;101620.78;;;21.22;46.89
72612;BME280;60655;52.182;4.474;2023-06-14T07:11:06;101631.34;;;21.29;46.38
72612;BME280;60655;52.182;4.474;2023-06-14T07:13:07;101624.84;;;21.25;46.30
72612;BME280;60655;52.182;4.474;2023-06-14T07:15:09;101625.38;;;21.22;47.04
72612;BME280;60655;52.182;4.474;2023-06-14T07:17:10;101617.22;;;21.07;47.48
72612;BME280;60655;52.182;4.474;2023-06-14T07:19:11;101633.47;;;21.22;47.18
72612;BME280;60655;52.182;4.474;2023-06-14T07:21:12;101602.97;;;21.32;47.91
72612;BME280;60655;52.182;4.474;2023-06-14T07:23:13;101623.78;;;21.46;46.38
72612;BME280;60655;52.182;4.474;2023-06-14T07:25:14;101625.38;;;21.47;47.06
72612;BME280;60655;52.182;4.474;2023-06-14T07:27:15;101627.84;;;21.59;46.58
72612;BME280;60655;52.182;4.474;2023-06-14T07:29:16;101626.75;;;21.75;46.16
72612;BME280;60655;52.182;4.474;2023-06-14T07:31:17;101628.38;;;21.92;45.75
72612;BME280;60655;52.182;4.474;2023-06-14T07:33:19;101636.19;;;21.98;45.39
72612;BME280;60655;52.182;4.474;2023-06-14T07:35:20;101629.16;;;22.12;44.68
72612;BME280;60655;52.182;4.474;2023-06-14T07:37:21;101629.72;;;22.19;45.06
72612;BME280;60655;52.182;4.474;2023-06-14T07:39:22;101622.63;;;22.29;44.96
72612;BME280;60655;52.182;4.474;2023-06-14T07:41:24;101639.91;;;22.43;44.88
72612;BME280;60655;52.182;4.474;2023-06-14T07:43:25;101638.91;;;22.18;44.42
72612;BME280;60655;52.182;4.474;2023-06-14T07:45:26;101640.81;;;22.08;44.58
72612;BME280;60655;52.182;4.474;2023-06-14T07:47:27;101637.28;;;22.17;44.47
72612;BME280;60655;52.182;4.474;2023-06-14T07:49:28;101644.53;;;22.42;44.77
72612;BME280;60655;52.182;4.474;2023-06-14T07:51:29;101634.78;;;22.36;44.19
72612;BME280;60655;52.182;4.474;2023-06-14T07:53:30;101643.38;;;22.58;44.67
72612;BME280;60655;52.182;4.474;2023-06-14T07:55:31;101632.28;;;22.60;44.21
72612;BME280;60655;52.182;4.474;2023-06-14T07:57:33;101644.69;;;22.76;44.31
72612;BME280;60655;52.182;4.474;2023-06-14T07:59:34;101654.75;;;22.61;44.46
72612;BME280;60655;52.182;4.474;2023-06-14T08:01:36;101653.38;;;22.68;43.87
72612;BME280;60655;52.182;4.474;2023-06-14T08:03:36;101652.50;;;22.83;43.41
72612;BME280;60655;52.182;4.474;2023-06-14T08:05:37;101652.44;;;22.98;42.18
72612;BME280;60655;52.182;4.474;2023-06-14T08:07:41;101662.75;;;23.01;42.75
72612;BME280;60655;52.182;4.474;2023-06-14T08:09:43;101648.13;;;22.97;42.26
72612;BME280;60655;52.182;4.474;2023-06-14T08:11:44;101641.41;;;22.84;42.78
72612;BME280;60655;52.182;4.474;2023-06-14T08:13:45;101650.50;;;23.09;43.93
72612;BME280;60655;52.182;4.474;2023-06-14T08:15:46;101649.91;;;23.17;42.52
72612;BME280;60655;52.182;4.474;2023-06-14T08:17:47;101650.91;;;23.31;41.89
72612;BME280;60655;52.182;4.474;2023-06-14T08:19:49;101652.78;;;23.36;41.95
72612;BME280;60655;52.182;4.474;2023-06-14T08:21:50;101651.47;;;23.28;42.25
72612;BME280;60655;52.182;4.474;2023-06-14T08:23:51;101656.03;;;23.33;41.64
72612;BME280;60655;52.182;4.474;2023-06-14T08:25:53;101635.44;;;23.32;41.96
72612;BME280;60655;52.182;4.474;2023-06-14T08:27:54;101648.59;;;23.53;41.77
72612;BME280;60655;52.182;4.474;2023-06-14T08:29:55;101650.47;;;23.58;41.59
72612;BME280;60655;52.182;4.474;2023-06-14T08:31:57;101656.84;;;23.72;41.49
72612;BME280;60655;52.182;4.474;2023-06-14T08:33:58;101645.91;;;23.82;41.00
72612;BME280;60655;52.182;4.474;2023-06-14T08:35:59;101645.63;;;23.84;40.93
72612;BME280;60655;52.182;4.474;2023-06-14T08:38:00;101654.09;;;24.06;39.50
72612;BME280;60655;52.182;4.474;2023-06-14T08:40:01;101652.75;;;24.04;39.84
72612;BME280;60655;52.182;4.474;2023-06-14T08:42:07;101649.72;;;24.10;39.55
72612;BME280;60655;52.182;4.474;2023-06-14T08:44:08;101646.44;;;24.13;39.98
72612;BME280;60655;52.182;4.474;2023-06-14T08:46:09;101649.88;;;24.24;39.52
72612;BME280;60655;52.182;4.474;2023-06-14T08:48:12;101642.56;;;24.19;38.87
72612;BME280;60655;52.182;4.474;2023-06-14T08:50:21;101642.97;;;24.08;38.75
72612;BME280;60655;52.182;4.474;2023-06-14T08:52:23;101652.53;;;24.29;39.19
72612;BME280;60655;52.182;4.474;2023-06-14T08:54:31;101653.91;;;24.27;38.93
72612;BME280;60655;52.182;4.474;2023-06-14T08:56:37;101633.91;;;24.17;39.44
72612;BME280;60655;52.182;4.474;2023-06-14T08:58:44;101659.72;;;24.44;38.90
72612;BME280;60655;52.182;4.474;2023-06-14T09:00:48;101654.56;;;24.66;38.94
72612;BME280;60655;52.182;4.474;2023-06-14T09:02:51;101659.75;;;24.63;37.71
72612;BME280;60655;52.182;4.474;2023-06-14T09:04:57;101661.13;;;24.84;38.22
72612;BME280;60655;52.182;4.474;2023-06-14T09:07:00;101662.16;;;24.88;37.15
72612;BME280;60655;52.182;4.474;2023-06-14T09:09:01;101665.44;;;24.85;36.94
72612;BME280;60655;52.182;4.474;2023-06-14T09:11:05;101659.06;;;25.00;36.51
72612;BME280;60655;52.182;4.474;2023-06-14T09:13:06;101666.41;;;24.99;36.58
72612;BME280;60655;52.182;4.474;2023-06-14T09:15:07;101656.38;;;24.95;36.75
72612;BME280;60655;52.182;4.474;2023-06-14T09:17:13;101663.63;;;25.04;35.89
72612;BME280;60655;52.182;4.474;2023-06-14T09:19:23;101662.56;;;25.19;36.32
72612;BME280;60655;52.182;4.474;2023-06-14T09:21:25;101678.09;;;25.37;35.26
72612;BME280;60655;52.182;4.474;2023-06-14T09:23:26;101665.31;;;25.38;34.76
72612;BME280;60655;52.182;4.474;2023-06-14T09:25:27;101659.75;;;25.62;35.43
72612;BME280;60655;52.182;4.474;2023-06-14T09:27:29;101656.59;;;25.73;34.73
72612;BME280;60655;52.182;4.474;2023-06-14T09:29:30;101651.19;;;25.87;35.17
72612;BME280;60655;52.182;4.474;2023-06-14T09:31:32;101652.22;;;25.91;34.54
72612;BME280;60655;52.182;4.474;2023-06-14T09:33:34;101649.97;;;25.79;33.95
72612;BME280;60655;52.182;4.474;2023-06-14T09:35:35;101661.34;;;25.81;34.43
72612;BME280;60655;52.182;4.474;2023-06-14T09:37:36;101649.56;;;25.86;33.76
72612;BME280;60655;52.182;4.474;2023-06-14T09:39:50;101658.38;;;25.97;34.58
72612;BME280;60655;52.182;4.474;2023-06-14T09:41:51;101660.47;;;26.00;33.84
72612;BME280;60655;52.182;4.474;2023-06-14T09:43:52;101662.22;;;26.09;33.53
72612;BME280;60655;52.182;4.474;2023-06-14T09:45:55;101664.25;;;26.17;32.07
72612;BME280;60655;52.182;4.474;2023-06-14T09:47:57;101653.31;;;26.36;31.98
72612;BME280;60655;52.182;4.474;2023-06-14T09:49:58;101658.22;;;26.20;31.33
72612;BME280;60655;52.182;4.474;2023-06-14T09:52:02;101664.84;;;26.14;31.92
72612;BME280;60655;52.182;4.474;2023-06-14T09:54:03;101661.16;;;26.24;32.46
72612;BME280;60655;52.182;4.474;2023-06-14T09:56:07;101661.84;;;26.30;31.35
72612;BME280;60655;52.182;4.474;2023-06-14T09:58:10;101659.88;;;26.49;32.12
72612;BME280;60655;52.182;4.474;2023-06-14T10:00:14;101659.03;;;26.62;31.57
72612;BME280;60655;52.182;4.474;2023-06-14T10:02:25;101660.31;;;26.92;31.41
72612;BME280;60655;52.182;4.474;2023-06-14T10:04:27;101669.75;;;27.00;30.74
72612;BME280;60655;52.182;4.474;2023-06-14T10:06:32;101662.25;;;26.91;30.20
72612;BME280;60655;52.182;4.474;2023-06-14T10:08:36;101666.50;;;27.11;30.47
72612;BME280;60655;52.182;4.474;2023-06-14T10:10:39;101662.56;;;27.04;28.58
72612;BME280;60655;52.182;4.474;2023-06-14T10:12:41;101677.72;;;27.10;29.26
72612;BME280;60655;52.182;4.474;2023-06-14T10:14:42;101663.63;;;27.16;29.79
72612;BME280;60655;52.182;4.474;2023-06-14T10:17:31;101660.88;;;27.16;29.09
72612;BME280;60655;52.182;4.474;2023-06-14T10:19:24;101655.28;;;27.13;28.74
72612;BME280;60655;52.182;4.474;2023-06-14T10:21:36;101665.91;;;27.01;28.99
72612;BME280;60655;52.182;4.474;2023-06-14T10:23:41;101650.22;;;27.06;29.13
72612;BME280;60655;52.182;4.474;2023-06-14T10:25:43;101657.06;;;27.17;29.01
72612;BME280;60655;52.182;4.474;2023-06-14T10:27:44;101668.00;;;27.40;28.44
72612;BME280;60655;52.182;4.474;2023-06-14T10:31:58;101658.44;;;27.65;26.48
72612;BME280;60655;52.182;4.474;2023-06-14T10:33:59;101649.13;;;27.66;26.67
72612;BME280;60655;52.182;4.474;2023-06-14T10:36:10;101655.50;;;27.61;27.02
72612;BME280;60655;52.182;4.474;2023-06-14T10:38:30;101660.97;;;27.61;27.33
72612;BME280;60655;52.182;4.474;2023-06-14T10:40:33;101649.13;;;27.66;27.38
72612;BME280;60655;52.182;4.474;2023-06-14T10:42:34;101624.69;;;27.47;26.89